Time;durP1;ratioP1;P1;durP2;ratioP2;P2;SDS_P1;SDS_P2;PMS_P1;PMS_P2;Temp;Humidity;BMP_temperature;BMP_pressure;BME280_temperature;BME280_humidity;BME280_pressure;Samples;Min_cycle;Max_cycle;Signal;HPM_P1;HPM_P2
2022/01/15 00:04:33;;;;;;;8.88;2.85;;;;;;;0.86;76.82;100993.73;3334156;83;20964;-71
2022/01/15 00:09:24;;;;;;;3.60;2.20;;;;;;;0.84;76.75;100995.31;3368392;83;21328;-71
2022/01/15 00:14:25;;;;;;;5.62;2.92;;;;;;;0.82;76.80;100994.34;3355532;83;20935;-71
2022/01/15 00:19:10;;;;;;;10.40;2.30;;;;;;;0.79;76.68;101013.34;3348988;83;20999;-72
2022/01/15 00:24:02;;;;;;;9.65;2.55;;;;;;;0.76;76.64;101007.66;3347548;83;20987;-72
2022/01/15 00:28:53;;;;;;;6.67;2.83;;;;;;;0.74;76.42;101007.56;3332664;83;22463;-70
2022/01/15 00:33:44;;;;;;;9.83;2.77;;;;;;;0.73;76.70;101007.46;3347351;83;21594;-71
2022/01/15 00:38:36;;;;;;;6.47;2.55;;;;;;;0.71;76.46;100997.13;3241535;86;20875;-71
2022/01/15 00:43:27;;;;;;;9.03;2.33;;;;;;;0.71;76.46;100983.05;3345808;83;21579;-72
2022/01/15 00:48:19;;;;;;;5.12;2.58;;;;;;;0.68;76.48;100973.93;3341524;83;21490;-71
2022/01/15 00:53:10;;;;;;;8.43;2.85;;;;;;;0.67;76.49;100984.95;3373819;83;21026;-71
2022/01/15 00:58:01;;;;;;;6.05;2.35;;;;;;;0.66;76.47;101003.67;3343548;83;21579;-70
2022/01/15 01:02:53;;;;;;;4.87;2.37;;;;;;;0.67;76.54;101005.42;3379283;83;21039;-72
2022/01/15 01:07:44;;;;;;;7.25;2.52;;;;;;;0.65;76.46;101003.57;3288732;83;20928;-71
2022/01/15 01:27:41;;;;;;;5.20;2.35;;;;;;;0.50;76.66;101011.16;3269428;85;21069;-71
2022/01/15 01:32:42;;;;;;;5.80;2.37;;;;;;;0.50;76.64;101011.16;3308387;84;20984;-71
2022/01/15 01:37:35;;;;;;;7.83;2.30;;;;;;;0.47;76.68;101013.15;3363036;83;21055;-71
2022/01/15 01:47:30;;;;;;;10.80;3.12;;;;;;;0.44;76.64;101008.23;3359381;82;21018;-71
2022/01/15 01:52:14;;;;;;;5.62;2.30;;;;;;;0.42;76.78;101012.38;3380610;82;21010;-71
2022/01/15 01:57:05;;;;;;;6.95;3.42;;;;;;;0.40;76.46;101003.73;3352542;82;20944;-71
2022/01/15 02:01:56;;;;;;;11.45;3.08;;;;;;;0.41;76.79;101005.48;3363888;83;21429;-71
2022/01/15 02:06:47;;;;;;;9.63;2.62;;;;;;;0.35;76.83;100996.63;3318429;84;20925;-72
2022/01/15 02:11:39;;;;;;;10.30;3.40;;;;;;;0.32;76.87;101005.41;3312612;83;22543;-71
2022/01/15 02:16:31;;;;;;;12.20;3.05;;;;;;;0.31;77.11;101007.47;3303437;83;20972;-71
2022/01/15 02:26:37;;;;;;;9.58;3.27;;;;;;;0.27;77.25;101006.79;3333583;83;20955;-71
2022/01/15 02:31:28;;;;;;;12.10;3.08;;;;;;;0.22;77.36;101001.78;3313463;83;20943;-72
2022/01/15 02:36:24;;;;;;;10.63;3.77;;;;;;;0.20;77.53;100999.52;3317852;84;21807;-72
2022/01/15 02:41:34;;;;;;;9.15;3.47;;;;;;;0.17;77.67;101000.20;3347412;83;20948;-71
2022/01/15 02:51:23;;;;;;;11.55;3.45;;;;;;;0.13;77.92;100990.97;3349122;83;20990;-72
2022/01/15 02:56:14;;;;;;;10.70;3.45;;;;;;;0.11;78.03;100987.44;3377442;82;20903;-71
2022/01/15 03:01:06;;;;;;;6.85;2.22;;;;;;;0.10;78.10;100986.94;3342284;83;21460;-71
2022/01/15 03:05:58;;;;;;;15.15;2.90;;;;;;;0.10;78.13;100992.05;3416478;82;20998;-71
2022/01/15 03:10:49;;;;;;;8.23;2.80;;;;;;;0.10;78.21;100998.44;3346991;82;20937;-70
2022/01/15 03:15:41;;;;;;;7.30;2.85;;;;;;;0.08;78.29;100994.91;3374102;82;21030;-70
2022/01/15 03:20:32;;;;;;;11.15;2.50;;;;;;;0.06;78.35;100991.38;3366534;82;21049;-71
2022/01/15 03:25:24;;;;;;;8.90;2.33;;;;;;;0.04;78.49;100998.06;3393338;83;21017;-71
2022/01/15 03:30:16;;;;;;;6.60;3.02;;;;;;;0.03;78.43;101002.67;3400221;82;21051;-72
2022/01/15 03:35:07;;;;;;;9.48;2.60;;;;;;;0.02;78.50;101006.91;3384915;83;21008;-71
2022/01/15 03:39:58;;;;;;;8.33;3.08;;;;;;;-0.01;78.41;101008.86;3361245;82;21530;-71
2022/01/15 03:44:50;;;;;;;10.58;4.40;;;;;;;-0.01;78.49;101015.66;3379589;83;21194;-71
2022/01/15 03:49:42;;;;;;;6.12;2.80;;;;;;;-0.05;78.58;101014.57;3386592;82;21061;-71
2022/01/15 03:54:34;;;;;;;11.05;4.55;;;;;;;-0.09;78.62;101008.78;3375554;82;20987;-71
2022/01/15 03:59:25;;;;;;;7.67;2.50;;;;;;;-0.14;78.79;101005.04;3347831;83;21457;-72
2022/01/15 04:04:18;;;;;;;7.33;4.00;;;;;;;-0.18;78.94;101000.48;3353921;82;21504;-72
2022/01/15 04:09:12;;;;;;;6.37;2.77;;;;;;;-0.23;79.04;101015.95;3349510;82;21460;-71
2022/01/15 04:14:04;;;;;;;5.72;2.72;;;;;;;-0.28;79.18;101007.09;3352737;82;20990;-70
2022/01/15 04:18:59;;;;;;;10.15;4.22;;;;;;;-0.32;79.24;101017.88;3344179;83;21042;-71
2022/01/15 04:23:51;;;;;;;9.30;4.83;;;;;;;-0.36;79.32;101023.58;3394845;82;21029;-72
2022/01/15 04:28:42;;;;;;;9.03;4.28;;;;;;;-0.42;79.46;101036.44;3348275;82;20950;-71
2022/01/15 04:33:37;;;;;;;10.70;3.33;;;;;;;-0.43;79.58;101061.52;3378986;82;21516;-71
2022/01/15 04:38:30;;;;;;;9.98;4.33;;;;;;;-0.47;79.57;101074.84;3388468;82;21932;-72
2022/01/15 04:43:21;;;;;;;9.15;4.28;;;;;;;-0.51;79.69;101072.88;3361748;82;21610;-71
2022/01/15 04:48:12;;;;;;;8.65;3.75;;;;;;;-0.56;79.79;101074.23;3386213;83;20924;-71
2022/01/15 04:53:04;;;;;;;10.28;3.72;;;;;;;-0.58;79.88;101094.95;3385042;82;20934;-71
2022/01/15 04:57:56;;;;;;;17.92;3.92;;;;;;;-0.64;79.87;101100.94;3348173;82;21018;-71
2022/01/15 05:02:47;;;;;;;11.83;4.25;;;;;;;-0.67;79.97;101107.11;3413476;82;21232;-70
2022/01/15 05:07:38;;;;;;;9.65;3.80;;;;;;;-0.70;80.11;101100.50;3384774;82;20974;-71
2022/01/15 05:12:41;;;;;;;10.98;3.35;;;;;;;-0.72;80.18;101108.05;3378352;82;20938;-70
2022/01/15 05:17:25;;;;;;;10.13;3.72;;;;;;;-0.73;80.18;101109.22;3357152;82;20959;-70
2022/01/15 05:22:17;;;;;;;9.23;3.35;;;;;;;-0.72;80.19;101105.91;3378284;82;21520;-71
2022/01/15 05:27:08;;;;;;;7.65;3.58;;;;;;;-0.71;80.21;101111.52;3387212;82;21162;-70
2022/01/15 05:31:59;;;;;;;7.37;2.58;;;;;;;-0.70;80.22;101108.16;3358484;82;21045;-72
2022/01/15 05:36:50;;;;;;;14.03;4.40;;;;;;;-0.72;80.31;101115.72;3368396;82;21033;-71
2022/01/15 05:41:41;;;;;;;12.00;3.30;;;;;;;-0.72;80.33;101119.95;3427038;82;20962;-71
2022/01/15 05:46:34;;;;;;;13.15;4.97;;;;;;;-0.75;80.44;101117.17;3388044;82;20958;-71
2022/01/15 05:51:29;;;;;;;12.45;4.00;;;;;;;-0.78;80.44;101111.08;3388313;82;21118;-71
2022/01/15 05:56:18;;;;;;;9.25;4.17;;;;;;;-0.81;80.49;101115.97;3371242;82;21244;-72
2022/01/15 06:01:09;;;;;;;12.35;4.30;;;;;;;-0.83;80.62;101119.20;3321401;84;20923;-71
2022/01/15 06:06:02;;;;;;;11.18;3.72;;;;;;;-0.83;80.67;101119.20;3296963;84;21690;-72
2022/01/15 06:10:53;;;;;;;13.00;4.17;;;;;;;-0.88;80.67;101122.70;3325378;83;22008;-71
2022/01/15 06:15:45;;;;;;;9.90;3.85;;;;;;;-0.89;80.79;101125.18;3312703;83;21499;-71
2022/01/15 06:20:36;;;;;;;9.55;4.22;;;;;;;-0.89;80.86;101137.55;3327256;84;21466;-71
2022/01/15 06:25:27;;;;;;;8.33;2.98;;;;;;;-0.89;80.84;101134.11;3348931;83;20945;-70
2022/01/15 06:30:18;;;;;;;8.80;3.72;;;;;;;-0.90;80.88;101145.97;3311757;84;20995;-71
2022/01/15 06:35:13;;;;;;;9.20;2.90;;;;;;;-0.92;80.85;101155.19;3276225;84;21014;-72
2022/01/15 06:40:06;;;;;;;11.48;4.45;;;;;;;-0.93;80.97;101150.89;3273865;83;21079;-71
2022/01/15 06:44:57;;;;;;;12.15;4.67;;;;;;;-0.91;80.99;101156.07;3269610;84;20993;-72
2022/01/15 06:49:49;;;;;;;7.53;3.85;;;;;;;-0.89;81.04;101153.27;3268117;84;21055;-71
2022/01/15 06:54:40;;;;;;;7.90;3.55;;;;;;;-0.89;80.98;101154.14;3305597;83;20959;-72
2022/01/15 06:59:31;;;;;;;14.80;5.95;;;;;;;-0.87;81.04;101171.72;3289978;84;20937;-70
2022/01/15 07:04:22;;;;;;;8.63;4.05;;;;;;;-0.83;81.06;101183.91;3321756;84;21604;-71
2022/01/15 07:09:14;;;;;;;12.47;3.80;;;;;;;-0.79;81.03;101188.48;3331775;83;21008;-71
2022/01/15 07:14:05;;;;;;;8.05;3.90;;;;;;;-0.76;80.98;101195.45;3350118;82;21655;-71
2022/01/15 07:18:56;;;;;;;11.65;3.70;;;;;;;-0.73;80.97;101197.32;3377761;82;20974;-71
2022/01/15 07:23:47;;;;;;;20.72;8.08;;;;;;;-0.70;81.00;101202.65;3424996;82;21155;-71
2022/01/15 07:28:38;;;;;;;9.98;3.70;;;;;;;-0.68;80.94;101198.53;3409316;82;21351;-71
2022/01/15 07:33:29;;;;;;;10.80;4.37;;;;;;;-0.66;80.89;101198.24;3342885;82;21013;-71
2022/01/15 07:38:21;;;;;;;12.50;3.83;;;;;;;-0.64;80.97;101192.48;3384547;82;20990;-71
2022/01/15 07:43:12;;;;;;;8.35;3.47;;;;;;;-0.58;80.90;101201.83;3389240;82;21006;-71
2022/01/15 07:48:03;;;;;;;10.50;4.25;;;;;;;-0.51;80.88;101218.88;3410151;82;21391;-72
2022/01/15 07:52:57;;;;;;;10.03;3.90;;;;;;;-0.46;80.82;101229.91;3380107;82;22027;-71
2022/01/15 07:57:48;;;;;;;11.40;4.05;;;;;;;-0.43;80.77;101239.08;3383805;82;21600;-72
2022/01/15 08:02:40;;;;;;;8.65;4.20;;;;;;;-0.34;80.72;101255.44;3321847;83;21026;-71
2022/01/15 08:07:31;;;;;;;13.45;5.45;;;;;;;-0.27;80.71;101246.50;3321430;83;20963;-71
2022/01/15 08:12:22;;;;;;;10.58;5.45;;;;;;;-0.22;80.65;101236.20;3329502;83;20987;-72
2022/01/15 08:17:13;;;;;;;14.10;4.58;;;;;;;-0.17;80.63;101242.53;3343907;83;21437;-71
2022/01/15 08:22:04;;;;;;;13.60;4.47;;;;;;;-0.10;80.58;101249.83;3257928;86;21645;-71
2022/01/15 08:26:55;;;;;;;10.43;3.87;;;;;;;-0.06;80.55;101253.08;3312722;83;21070;-71
2022/01/15 08:31:47;;;;;;;7.78;3.42;;;;;;;-0.01;80.45;101241.50;3327365;83;21514;-71
2022/01/15 08:36:38;;;;;;;9.80;3.20;;;;;;;0.04;80.37;101238.39;3336150;83;21335;-70
2022/01/15 08:41:29;;;;;;;10.90;3.40;;;;;;;0.11;80.40;101234.19;3362384;83;22152;-72
2022/01/15 08:46:20;;;;;;;12.58;4.37;;;;;;;0.16;80.30;101245.59;3337286;83;20995;-71
2022/01/15 08:51:12;;;;;;;8.23;2.77;;;;;;;0.22;80.28;101247.30;3282854;83;20985;-71
2022/01/15 08:56:03;;;;;;;13.03;3.87;;;;;;;0.28;80.22;101232.34;3304138;83;20999;-71
2022/01/15 09:00:55;;;;;;;8.78;3.80;;;;;;;0.36;80.16;101238.87;3352785;83;21757;-72
2022/01/15 09:05:46;;;;;;;13.43;5.20;;;;;;;0.42;80.06;101249.89;3382143;83;21780;-72
2022/01/15 09:10:41;;;;;;;10.32;4.10;;;;;;;0.53;80.00;101255.72;3367182;83;21041;-71
2022/01/15 09:15:30;;;;;;;7.42;4.20;;;;;;;0.62;79.93;101257.59;3366214;83;21493;-72
2022/01/15 09:20:21;;;;;;;10.43;4.83;;;;;;;0.79;79.66;101260.00;3404850;83;20958;-71
2022/01/15 09:25:12;;;;;;;11.45;4.90;;;;;;;0.95;79.51;101269.16;3383832;83;21037;-71
2022/01/15 09:30:13;;;;;;;8.70;3.60;;;;;;;1.14;79.13;101268.67;3381246;82;21437;-71
2022/01/15 09:35:05;;;;;;;9.83;4.40;;;;;;;1.37;78.89;101263.22;3350471;82;21466;-71
2022/01/15 09:39:57;;;;;;;7.12;2.98;;;;;;;1.52;78.57;101274.03;3355247;82;21021;-71
2022/01/15 09:44:49;;;;;;;10.82;4.35;;;;;;;1.71;78.09;101281.57;3376623;82;20994;-71
2022/01/15 09:49:44;;;;;;;16.35;4.05;;;;;;;1.79;78.26;101274.34;3392245;82;20966;-72
2022/01/15 09:54:38;;;;;;;13.25;4.40;;;;;;;1.88;78.02;101277.09;3352542;83;22269;-72
2022/01/15 09:59:29;;;;;;;12.68;4.20;;;;;;;1.90;77.99;101281.91;3288248;83;21032;-72
2022/01/15 10:04:20;;;;;;;15.83;6.55;;;;;;;1.99;77.63;101284.16;3326113;83;21051;-72
2022/01/15 10:09:11;;;;;;;9.95;4.65;;;;;;;1.95;77.58;101286.42;3317928;83;21016;-71
2022/01/15 10:14:02;;;;;;;18.27;6.28;;;;;;;2.19;77.53;101294.33;3365041;82;21598;-72
2022/01/15 10:18:53;;;;;;;14.63;6.75;;;;;;;2.43;77.14;101288.88;3363386;82;22152;-71
2022/01/15 10:23:49;;;;;;;10.48;4.55;;;;;;;2.64;77.03;101284.98;3391722;82;20974;-72
2022/01/15 10:29:00;;;;;;;17.70;7.12;;;;;;;2.80;76.43;101296.16;3367561;82;20990;-72
2022/01/15 10:33:52;;;;;;;18.87;7.08;;;;;;;3.05;76.07;101293.30;3401394;82;21006;-72
2022/01/15 10:38:43;;;;;;;11.48;5.22;;;;;;;3.00;75.80;101291.75;3395320;82;20999;-72
2022/01/15 10:43:34;;;;;;;18.52;7.62;;;;;;;2.96;75.72;101305.22;3359098;82;22540;-71
2022/01/15 10:48:35;;;;;;;13.75;5.33;;;;;;;2.81;76.22;101326.20;3336386;82;21520;-71
2022/01/15 10:53:45;;;;;;;20.08;7.80;;;;;;;2.80;75.95;101325.70;3389010;82;20975;-72
2022/01/15 10:58:37;;;;;;;13.35;5.62;;;;;;;2.77;76.23;101330.64;3364776;82;22007;-71
2022/01/15 11:03:40;;;;;;;13.25;3.87;;;;;;;2.82;76.00;101324.09;3350665;83;20990;-72
2022/01/15 11:08:36;;;;;;;17.50;7.45;;;;;;;2.76;76.06;101346.45;3306306;83;21037;-71
2022/01/15 11:13:32;;;;;;;8.95;3.85;;;;;;;2.78;76.24;101342.30;3354409;83;21444;-71
2022/01/15 11:18:28;;;;;;;8.43;3.43;;;;;;;2.91;75.89;101340.03;3374541;83;20994;-71
2022/01/15 11:23:22;;;;;;;12.40;6.10;;;;;;;2.89;75.56;101346.77;3341968;83;20967;-71
2022/01/15 11:28:14;;;;;;;19.75;7.33;;;;;;;2.77;75.58;101357.23;3357844;83;20992;-71
2022/01/15 11:33:05;;;;;;;11.85;4.30;;;;;;;2.64;75.70;101367.16;3340705;83;21057;-72
2022/01/15 11:37:57;;;;;;;17.62;6.42;;;;;;;2.69;75.80;101371.70;3344049;83;21129;-71
2022/01/15 11:42:48;;;;;;;12.53;4.72;;;;;;;2.71;75.84;101366.25;3337223;83;21032;-72
2022/01/15 11:47:39;;;;;;;14.13;5.85;;;;;;;2.83;75.45;101374.68;3359298;83;20923;-71
2022/01/15 11:52:32;;;;;;;18.25;8.28;;;;;;;2.83;75.33;101373.40;3343967;83;22153;-71
2022/01/15 11:57:36;;;;;;;15.48;5.72;;;;;;;2.91;75.20;101364.84;3286633;83;21623;-72
2022/01/15 12:02:41;;;;;;;12.30;4.67;;;;;;;3.02;75.21;101359.55;3328157;82;20912;-72
2022/01/15 12:07:32;;;;;;;13.28;5.30;;;;;;;3.01;74.84;101360.73;3369611;82;21010;-72
2022/01/15 12:12:46;;;;;;;14.28;5.53;;;;;;;3.17;75.03;101353.52;3411254;82;21387;-73
2022/01/15 12:17:54;;;;;;;13.83;5.42;;;;;;;3.42;74.75;101346.38;3395349;82;21362;-72
2022/01/15 12:22:56;;;;;;;14.80;6.55;;;;;;;3.92;74.02;101333.64;3340032;82;22526;-74
2022/01/15 12:27:56;;;;;;;13.68;5.95;;;;;;;4.50;73.44;101328.95;3384104;82;21472;-72
2022/01/15 12:32:57;;;;;;;9.88;4.92;;;;;;;4.39;73.72;101346.84;3364312;82;20968;-72
2022/01/15 12:38:11;;;;;;;18.62;7.30;;;;;;;4.30;73.62;101355.37;3343796;82;21003;-70
2022/01/15 12:43:13;;;;;;;23.27;10.23;;;;;;;4.15;73.59;101343.47;3392100;82;21009;-70
2022/01/15 12:48:07;;;;;;;11.38;4.78;;;;;;;3.98;73.90;101342.55;3392118;82;21405;-72
2022/01/15 12:53:04;;;;;;;13.00;5.72;;;;;;;3.81;73.51;101339.09;3363190;82;21064;-70
2022/01/15 12:57:55;;;;;;;16.77;8.20;;;;;;;3.63;73.79;101350.92;3382619;82;21069;-71
2022/01/15 13:02:48;;;;;;;8.75;4.42;;;;;;;3.43;73.82;101355.87;3381595;82;20900;-70
2022/01/15 13:07:52;;;;;;;11.33;4.87;;;;;;;3.12;73.72;101360.07;3357089;82;22116;-70
2022/01/15 13:12:45;;;;;;;15.65;5.95;;;;;;;2.92;73.99;101371.77;3409673;82;21271;-70
2022/01/15 13:17:40;;;;;;;10.53;4.97;;;;;;;2.76;74.04;101371.27;3410294;82;20974;-71
2022/01/15 13:22:31;;;;;;;13.08;4.65;;;;;;;2.60;74.09;101366.49;3383476;82;20927;-71
2022/01/15 13:27:23;;;;;;;15.80;8.05;;;;;;;2.48;74.45;101366.63;3363855;82;21030;-71
2022/01/15 13:32:14;;;;;;;16.67;5.45;;;;;;;2.48;74.65;101384.60;3354493;82;21430;-72
2022/01/15 13:37:09;;;;;;;13.05;4.87;;;;;;;2.50;74.63;101392.40;3342325;82;21523;-72
2022/01/15 13:42:00;;;;;;;10.93;4.45;;;;;;;2.53;74.98;101382.73;3387558;82;20892;-72
2022/01/15 13:46:51;;;;;;;14.23;5.10;;;;;;;2.50;75.15;101384.70;3342066;82;20942;-71
2022/01/15 13:57:08;;;;;;;13.10;5.20;;;;;;;2.48;75.21;101392.30;3389751;82;21662;-71
2022/01/15 14:02:02;;;;;;;8.73;5.30;;;;;;;2.41;75.18;101391.84;3370972;82;22072;-71
2022/01/15 14:07:03;;;;;;;13.70;5.28;;;;;;;2.39;75.31;101393.44;3323061;83;21043;-72
2022/01/15 14:11:57;;;;;;;14.70;6.03;;;;;;;2.33;75.33;101382.81;3316820;83;20956;-71
2022/01/15 14:17:04;;;;;;;16.42;6.78;;;;;;;2.22;75.32;101386.89;3275488;83;21467;-70
2022/01/15 14:21:56;;;;;;;9.47;5.10;;;;;;;2.13;75.47;101394.02;3346478;83;21505;-70
2022/01/15 14:26:54;;;;;;;19.00;5.78;;;;;;;1.99;75.55;101396.13;3337225;83;21181;-70
2022/01/15 14:31:45;;;;;;;32.20;10.78;;;;;;;1.87;75.86;101407.38;3316917;83;20979;-70
2022/01/15 14:36:36;;;;;;;21.17;5.70;;;;;;;1.76;75.93;101399.41;3313597;83;20967;-71
2022/01/15 14:41:27;;;;;;;12.25;5.42;;;;;;;1.68;76.29;101405.34;3337680;83;21515;-70
2022/01/15 14:46:18;;;;;;;17.45;7.28;;;;;;;1.60;76.34;101410.77;3315538;83;21519;-71
2022/01/15 14:51:13;;;;;;;11.38;5.40;;;;;;;1.53;76.50;101414.19;3341769;83;21830;-71
2022/01/15 14:56:04;;;;;;;16.15;6.03;;;;;;;1.45;76.66;101412.83;3360329;83;21035;-70
2022/01/15 15:00:56;;;;;;;12.95;5.85;;;;;;;1.34;76.77;101415.06;3307583;83;21564;-72
2022/01/15 15:05:47;;;;;;;15.60;6.33;;;;;;;1.23;76.90;101423.73;3321317;84;21304;-72
2022/01/15 15:10:38;;;;;;;10.35;5.97;;;;;;;1.11;77.17;101422.14;3292489;84;21577;-71
2022/01/15 15:15:30;;;;;;;12.25;6.65;;;;;;;0.98;77.32;101419.53;3298255;84;21468;-71
2022/01/15 15:20:21;;;;;;;12.47;5.83;;;;;;;0.86;77.32;101427.30;3297181;84;21539;-70
2022/01/15 15:25:13;;;;;;;17.20;8.00;;;;;;;0.75;77.61;101429.14;3295574;84;20982;-71
2022/01/15 15:30:06;;;;;;;14.60;6.08;;;;;;;0.64;77.74;101427.50;3269183;84;22221;-71
2022/01/15 15:34:58;;;;;;;17.77;7.60;;;;;;;0.50;77.78;101433.34;3309554;84;21085;-70
2022/01/15 15:39:49;;;;;;;19.05;8.05;;;;;;;0.42;78.19;101429.39;3297123;84;21098;-71
2022/01/15 15:44:41;;;;;;;27.65;9.33;;;;;;;0.33;78.30;101433.06;3255149;84;35212;-71
2022/01/15 15:49:34;;;;;;;16.37;7.40;;;;;;;0.29;78.53;101446.44;3331435;84;20984;-72
2022/01/15 15:54:26;;;;;;;16.10;7.50;;;;;;;0.28;78.58;101444.64;3285806;84;21169;-71
2022/01/15 15:59:17;;;;;;;15.72;7.85;;;;;;;0.24;78.48;101436.27;3322896;84;21006;-72
2022/01/15 16:04:08;;;;;;;19.02;9.63;;;;;;;0.11;78.40;101433.65;3352338;82;21511;-70
2022/01/15 16:08:59;;;;;;;18.17;9.70;;;;;;;0.02;78.80;101437.72;3365480;82;20951;-70
2022/01/15 16:13:53;;;;;;;20.43;10.00;;;;;;;-0.06;79.09;101446.50;3353321;82;20899;-70
2022/01/15 16:18:43;;;;;;;18.07;9.60;;;;;;;-0.14;79.22;101442.12;3385233;82;21276;-71
2022/01/15 16:23:35;;;;;;;23.77;11.33;;;;;;;-0.21;79.27;101436.08;3365788;82;20955;-71
2022/01/15 16:28:26;;;;;;;17.65;9.20;;;;;;;-0.30;79.10;101437.97;3342086;82;21601;-74
2022/01/15 16:33:17;;;;;;;22.42;9.35;;;;;;;-0.41;79.51;101438.08;3409576;82;20990;-71
2022/01/15 16:38:08;;;;;;;27.13;13.00;;;;;;;-0.47;79.84;101444.00;3338909;82;20939;-71
2022/01/15 16:43:00;;;;;;;21.82;14.10;;;;;;;-0.47;80.20;101456.77;3357946;82;20998;-71
2022/01/15 16:47:51;;;;;;;26.52;13.15;;;;;;;-0.49;80.13;101464.72;3342746;82;21367;-71
2022/01/15 16:52:45;;;;;;;24.92;11.73;;;;;;;-0.56;80.10;101458.66;3318688;82;21688;-71
2022/01/15 16:57:36;;;;;;;28.83;12.45;;;;;;;-0.61;80.21;101466.37;3384563;82;20963;-71
2022/01/15 17:02:27;;;;;;;22.35;10.93;;;;;;;-0.70;80.23;101469.52;3370627;82;22138;-72
2022/01/15 17:07:18;;;;;;;18.17;10.80;;;;;;;-0.75;80.52;101475.95;3373276;83;20990;-71
2022/01/15 17:12:10;;;;;;;21.80;11.68;;;;;;;-0.82;80.51;101476.78;3312609;83;21475;-72
2022/01/15 17:17:02;;;;;;;27.22;13.65;;;;;;;-0.86;80.77;101477.34;3303906;83;21124;-72
2022/01/15 17:21:53;;;;;;;25.05;13.00;;;;;;;-0.79;81.03;101471.91;3330801;83;20990;-71
2022/01/15 17:26:44;;;;;;;21.85;14.07;;;;;;;-0.68;81.32;101467.97;3353727;83;21483;-72
2022/01/15 17:31:35;;;;;;;28.65;13.15;;;;;;;-0.54;81.45;101484.33;3343324;83;21107;-73
2022/01/15 17:36:26;;;;;;;23.00;12.33;;;;;;;-0.42;81.53;101487.39;3308634;83;20972;-72
2022/01/15 17:41:21;;;;;;;23.57;12.90;;;;;;;-0.29;81.65;101487.01;3335240;83;21003;-72
2022/01/15 17:46:11;;;;;;;22.15;12.90;;;;;;;-0.17;81.67;101480.23;3359350;83;21113;-71
2022/01/15 17:51:03;;;;;;;24.37;13.08;;;;;;;-0.07;81.61;101490.72;3348380;83;21269;-72
2022/01/15 17:55:54;;;;;;;24.47;13.78;;;;;;;-0.03;81.62;101484.67;3353895;83;21533;-72
2022/01/15 18:00:45;;;;;;;26.77;11.70;;;;;;;0.04;81.60;101490.25;3333940;83;20952;-72
2022/01/15 18:05:36;;;;;;;19.87;11.83;;;;;;;0.10;81.63;101494.51;3349830;83;20939;-73
2022/01/15 18:10:28;;;;;;;19.75;11.28;;;;;;;0.15;81.61;101490.22;3306784;83;21583;-71
2022/01/15 18:15:19;;;;;;;22.30;12.85;;;;;;;0.18;81.56;101492.13;3349803;83;21070;-72
2022/01/15 18:20:11;;;;;;;24.12;13.50;;;;;;;0.21;81.60;101499.98;3324539;84;21027;-71
2022/01/15 18:25:08;;;;;;;28.77;13.78;;;;;;;0.23;81.66;101494.58;3304698;84;21022;-73
2022/01/15 18:30:01;;;;;;;27.87;15.27;;;;;;;0.27;81.65;101498.25;3371245;82;21094;-71
2022/01/15 18:34:53;;;;;;;33.83;16.65;;;;;;;0.28;81.66;101500.04;3378740;82;21026;-72
2022/01/15 18:39:44;;;;;;;31.77;18.12;;;;;;;0.27;81.62;101500.80;3368926;82;20986;-72
2022/01/15 18:44:35;;;;;;;32.83;18.05;;;;;;;0.28;81.73;101500.04;3387658;82;21409;-71
2022/01/15 18:49:28;;;;;;;29.20;17.52;;;;;;;0.31;81.77;101504.98;3356222;82;21521;-71
2022/01/15 18:54:19;;;;;;;31.75;19.02;;;;;;;0.32;81.75;101514.45;3396291;82;21157;-70
2022/01/15 18:59:15;;;;;;;33.40;19.35;;;;;;;0.34;81.78;101517.09;3388911;82;21726;-70
2022/01/15 19:04:04;;;;;;;33.10;17.35;;;;;;;0.36;81.85;101556.09;3312936;83;20959;-71
2022/01/15 19:08:55;;;;;;;33.45;18.17;;;;;;;0.38;81.84;101676.05;3345359;83;20945;-71
2022/01/15 19:13:46;;;;;;;29.65;18.48;;;;;;;0.41;81.86;101529.94;3320836;83;20947;-71
2022/01/15 19:18:37;;;;;;;29.50;18.05;;;;;;;0.44;81.90;101481.14;3337828;83;21588;-70
2022/01/15 19:23:28;;;;;;;39.55;20.32;;;;;;;0.47;81.89;101509.91;3275452;83;20952;-70
2022/01/15 19:28:19;;;;;;;36.10;21.65;;;;;;;0.47;81.84;101536.78;3336059;83;21476;-71
2022/01/15 19:33:10;;;;;;;32.55;18.70;;;;;;;0.47;81.90;101521.03;3297708;83;21081;-70
2022/01/15 19:38:03;;;;;;;37.33;21.07;;;;;;;0.49;81.91;101460.61;3309578;83;20992;-71
2022/01/15 19:42:55;;;;;;;31.33;20.20;;;;;;;0.52;81.97;101477.83;3276271;83;21005;-70
2022/01/15 19:47:49;;;;;;;33.23;18.48;;;;;;;0.52;81.90;101461.20;3328301;83;20956;-71
2022/01/15 19:52:44;;;;;;;30.23;16.77;;;;;;;0.52;81.87;101449.68;3360995;83;21536;-71
2022/01/15 19:57:36;;;;;;;32.10;17.95;;;;;;;0.51;81.81;101460.72;3306650;83;20968;-69
2022/01/15 20:02:27;;;;;;;33.78;17.90;;;;;;;0.52;81.89;101508.53;3310886;83;21012;-70
2022/01/15 20:07:19;;;;;;;34.65;18.50;;;;;;;0.52;81.91;101502.14;3312619;83;22060;-70
2022/01/15 20:12:11;;;;;;;39.30;21.93;;;;;;;0.52;81.91;101511.09;3294532;83;21148;-71
2022/01/15 20:17:04;;;;;;;40.05;24.02;;;;;;;0.51;81.93;101485.91;3294866;84;21008;-71
2022/01/15 20:21:55;;;;;;;44.65;24.40;;;;;;;0.50;81.88;101444.86;3294246;83;21118;-70
2022/01/15 20:26:47;;;;;;;40.73;23.57;;;;;;;0.49;81.94;101473.41;3318066;83;21056;-71
2022/01/15 20:31:38;;;;;;;35.50;19.27;;;;;;;0.48;81.88;101473.30;3290693;83;21232;-71
2022/01/15 20:36:29;;;;;;;34.85;19.17;;;;;;;0.38;81.83;101497.36;3325861;83;20979;-70
2022/01/15 20:41:20;;;;;;;33.10;18.20;;;;;;;0.33;82.00;101504.70;3338384;83;20943;-70
2022/01/15 20:46:12;;;;;;;32.75;19.05;;;;;;;0.34;82.10;101516.72;3313445;83;21050;-70
2022/01/15 20:51:03;;;;;;;35.48;18.70;;;;;;;0.34;82.06;101497.53;3291399;83;21014;-70
2022/01/15 20:55:55;;;;;;;34.18;18.27;;;;;;;0.34;82.10;101500.09;3314856;83;21155;-71
2022/01/15 21:00:46;;;;;;;35.35;20.12;;;;;;;0.33;82.03;101480.39;3305717;83;20936;-71
2022/01/15 21:05:42;;;;;;;36.77;20.72;;;;;;;0.33;82.04;101496.14;3364045;82;20945;-72
2022/01/15 21:10:35;;;;;;;33.95;20.85;;;;;;;0.33;82.12;101499.58;3390116;82;20956;-70
2022/01/15 21:15:28;;;;;;;33.05;21.00;;;;;;;0.34;82.17;101497.53;3370720;82;21523;-71
2022/01/15 21:20:21;;;;;;;40.75;23.55;;;;;;;0.33;82.22;101507.66;3363315;82;21216;-71
2022/01/15 21:25:12;;;;;;;33.98;20.08;;;;;;;0.33;82.23;101494.46;3391818;82;20994;-70
2022/01/15 21:30:06;;;;;;;35.95;21.95;;;;;;;0.35;82.16;101496.73;3372991;82;21019;-71
2022/01/15 21:34:57;;;;;;;32.83;20.77;;;;;;;0.34;82.14;101483.83;3380891;82;20908;-70
2022/01/15 21:39:49;;;;;;;38.65;19.90;;;;;;;0.34;82.10;101473.59;3356531;82;21563;-70
2022/01/15 21:44:40;;;;;;;36.05;20.80;;;;;;;0.31;82.04;101471.73;3364382;82;22125;-72
2022/01/15 21:49:32;;;;;;;41.42;23.70;;;;;;;0.30;82.13;101468.66;3370187;82;20968;-71
2022/01/15 21:54:24;;;;;;;34.25;21.15;;;;;;;0.31;82.09;101470.84;3387833;82;21233;-70
2022/01/15 21:59:15;;;;;;;40.63;21.95;;;;;;;0.31;82.11;101474.28;3383646;82;20990;-71
2022/01/15 22:04:06;;;;;;;38.65;23.18;;;;;;;0.28;82.12;101480.45;3359282;82;21007;-71
2022/01/15 22:08:58;;;;;;;44.77;22.40;;;;;;;0.29;82.14;101466.02;3397105;83;22078;-70
2022/01/15 22:13:50;;;;;;;33.70;19.40;;;;;;;0.28;82.09;101483.02;3377354;82;21018;-70
2022/01/15 22:18:41;;;;;;;41.15;20.25;;;;;;;0.26;82.04;101478.58;3406267;82;21042;-71
2022/01/15 22:23:32;;;;;;;37.83;21.75;;;;;;;0.24;82.20;101482.70;3378607;82;20979;-71
2022/01/15 22:28:23;;;;;;;36.58;20.00;;;;;;;0.24;82.20;101481.03;3399142;83;20960;-71
2022/01/15 22:33:14;;;;;;;34.80;21.15;;;;;;;0.21;82.14;101479.92;3370300;83;21464;-70
2022/01/15 22:38:06;;;;;;;35.90;23.22;;;;;;;0.20;82.23;101481.60;3355532;82;20940;-70
2022/01/15 22:42:57;;;;;;;41.60;22.73;;;;;;;0.21;82.30;101486.32;3388953;83;21077;-70
2022/01/15 22:47:49;;;;;;;38.15;21.37;;;;;;;0.22;82.21;101494.50;3358618;82;20978;-70
2022/01/15 22:52:40;;;;;;;35.98;20.40;;;;;;;0.21;82.34;101498.70;3339874;82;20950;-72
2022/01/15 22:57:31;;;;;;;34.53;20.35;;;;;;;0.20;82.37;101494.39;3354230;82;21044;-70
2022/01/15 23:02:22;;;;;;;36.83;20.45;;;;;;;0.18;82.27;101490.44;3359191;82;21021;-69
2022/01/15 23:07:14;;;;;;;36.75;21.73;;;;;;;0.16;82.35;101486.89;3355072;82;21526;-70
2022/01/15 23:12:10;;;;;;;39.85;21.42;;;;;;;0.17;82.45;101479.70;3378041;83;21030;-71